SIA203 WSSS-YBCS
Flight info
| Callsign | SIA203 |
|---|---|
| Flight time | N/A |
| Altitude | 41000 |
| Route | DODSO1A DODSO T21 OBDOS M774 KIKEM A464 IKUMA J61 PUNIT |
| Aircraft | A359/H-SDE2E3GHIJ3J4J5LM1ORWXY/LB1D1 |
Departure
| Time | N/A |
|---|---|
| Airport | Singapore Changi Airport (WSSS) |
Arrival
| Time | 2026-05-05 04:53 |
|---|---|
| Airport | Cairns International Airport (YBCS) |
| Time | Latitude | Longitude | Altitude | Speed | Heading |
|---|---|---|---|---|---|
| 2026-05-05 03:57 | -15.00539 | 139.09316 | 39715 ft | 534 kts | 107° |
| 2026-05-05 03:57 | -15.01651 | 139.13083 | 39943 ft | 533 kts | 107° |
| 2026-05-05 03:57 | -15.02733 | 139.16750 | 40157 ft | 533 kts | 107° |
| 2026-05-05 03:57 | -15.03814 | 139.20415 | 40373 ft | 532 kts | 107° |
| 2026-05-05 03:58 | -15.04891 | 139.24070 | 40561 ft | 532 kts | 107° |
| 2026-05-05 03:58 | -15.05971 | 139.27739 | 40776 ft | 532 kts | 107° |
| 2026-05-05 03:58 | -15.07051 | 139.31408 | 40921 ft | 532 kts | 107° |
| 2026-05-05 03:58 | -15.08126 | 139.35064 | 40940 ft | 532 kts | 107° |
| 2026-05-05 03:59 | -15.10279 | 139.42389 | 40936 ft | 531 kts | 107° |
| 2026-05-05 03:59 | -15.12412 | 139.49658 | 40935 ft | 531 kts | 107° |
| 2026-05-05 04:00 | -15.14560 | 139.56986 | 40936 ft | 531 kts | 107° |
| 2026-05-05 04:00 | -15.16704 | 139.64309 | 40940 ft | 532 kts | 107° |
| 2026-05-05 04:01 | -15.18845 | 139.71635 | 40940 ft | 532 kts | 107° |
| 2026-05-05 04:01 | -15.20986 | 139.78971 | 40937 ft | 531 kts | 107° |
| 2026-05-05 04:02 | -15.23124 | 139.86305 | 40936 ft | 531 kts | 107° |
| 2026-05-05 04:02 | -15.25257 | 139.93631 | 40938 ft | 531 kts | 107° |
| 2026-05-05 04:03 | -15.27387 | 140.00957 | 40936 ft | 531 kts | 107° |
| 2026-05-05 04:03 | -15.29518 | 140.08293 | 40937 ft | 531 kts | 107° |
| 2026-05-05 04:04 | -15.31632 | 140.15583 | 40939 ft | 531 kts | 107° |
| 2026-05-05 04:04 | -15.33409 | 140.21720 | 40935 ft | 531 kts | 107° |
| 2026-05-05 04:05 | -15.35874 | 140.30241 | 40936 ft | 531 kts | 107° |
| 2026-05-05 04:05 | -15.37651 | 140.36390 | 40938 ft | 531 kts | 107° |
| 2026-05-05 04:06 | -15.39756 | 140.43688 | 40940 ft | 531 kts | 107° |
| 2026-05-05 04:06 | -15.41871 | 140.51029 | 40939 ft | 531 kts | 107° |
| 2026-05-05 04:07 | -15.43984 | 140.58371 | 40937 ft | 532 kts | 107° |
| 2026-05-05 04:07 | -15.46098 | 140.65725 | 40935 ft | 532 kts | 107° |
| 2026-05-05 04:08 | -15.48208 | 140.73080 | 40939 ft | 532 kts | 107° |
| 2026-05-05 04:08 | -15.50315 | 140.80431 | 40937 ft | 532 kts | 106° |
| 2026-05-05 04:09 | -15.52406 | 140.87735 | 40935 ft | 532 kts | 106° |
| 2026-05-05 04:09 | -15.54510 | 140.95099 | 40935 ft | 532 kts | 106° |
| 2026-05-05 04:10 | -15.56613 | 141.02466 | 40932 ft | 532 kts | 106° |
| 2026-05-05 04:10 | -15.58712 | 141.09829 | 40930 ft | 532 kts | 106° |
| 2026-05-05 04:11 | -15.60799 | 141.17162 | 40932 ft | 532 kts | 106° |
| 2026-05-05 04:11 | -15.62896 | 141.24540 | 40927 ft | 533 kts | 106° |
| 2026-05-05 04:12 | -15.64992 | 141.31922 | 40921 ft | 533 kts | 106° |
| 2026-05-05 04:12 | -15.67083 | 141.39300 | 40927 ft | 533 kts | 106° |
| 2026-05-05 04:13 | -15.69173 | 141.46684 | 40918 ft | 533 kts | 106° |
| 2026-05-05 04:13 | -15.71264 | 141.54080 | 40921 ft | 534 kts | 105° |
| 2026-05-05 04:14 | -15.73340 | 141.61433 | 40919 ft | 534 kts | 105° |
| 2026-05-05 04:14 | -15.75423 | 141.68824 | 40920 ft | 534 kts | 105° |
| 2026-05-05 04:15 | -15.77507 | 141.76228 | 40919 ft | 534 kts | 105° |
| 2026-05-05 04:15 | -15.79590 | 141.83638 | 40919 ft | 535 kts | 105° |
| 2026-05-05 04:16 | -15.81676 | 141.91070 | 40920 ft | 535 kts | 105° |
| 2026-05-05 04:16 | -15.83752 | 141.98483 | 40923 ft | 535 kts | 105° |
| 2026-05-05 04:17 | -15.85815 | 142.05869 | 40923 ft | 535 kts | 105° |
| 2026-05-05 04:17 | -15.87888 | 142.13301 | 40919 ft | 536 kts | 105° |
| 2026-05-05 04:18 | -15.89962 | 142.20747 | 40921 ft | 536 kts | 105° |
| 2026-05-05 04:18 | -15.92032 | 142.28187 | 40921 ft | 536 kts | 105° |
| 2026-05-05 04:19 | -15.94101 | 142.35637 | 40921 ft | 536 kts | 105° |
| 2026-05-05 04:19 | -15.96152 | 142.43032 | 40922 ft | 536 kts | 105° |
| 2026-05-05 04:20 | -15.98214 | 142.50479 | 40917 ft | 536 kts | 105° |
| 2026-05-05 04:20 | -16.00277 | 142.57936 | 40921 ft | 536 kts | 105° |
| 2026-05-05 04:21 | -16.02337 | 142.65396 | 40919 ft | 536 kts | 105° |
| 2026-05-05 04:21 | -16.04392 | 142.72849 | 40923 ft | 536 kts | 105° |
| 2026-05-05 04:22 | -16.06436 | 142.80271 | 40922 ft | 536 kts | 105° |
| 2026-05-05 04:22 | -16.08489 | 142.87737 | 40920 ft | 536 kts | 105° |
| 2026-05-05 04:23 | -16.10539 | 142.95205 | 40920 ft | 536 kts | 105° |
| 2026-05-05 04:23 | -16.12574 | 143.02627 | 40920 ft | 537 kts | 105° |
| 2026-05-05 04:24 | -16.14618 | 143.10093 | 40920 ft | 537 kts | 105° |
| 2026-05-05 04:25 | -16.17680 | 143.21301 | 40923 ft | 536 kts | 105° |
| 2026-05-05 04:25 | -16.19716 | 143.28779 | 40918 ft | 537 kts | 105° |
| 2026-05-05 04:26 | -16.21740 | 143.36208 | 40920 ft | 537 kts | 104° |
| 2026-05-05 04:26 | -16.23775 | 143.43688 | 40924 ft | 536 kts | 104° |
| 2026-05-05 04:27 | -16.25806 | 143.51170 | 40922 ft | 537 kts | 104° |
| 2026-05-05 04:27 | -16.27835 | 143.58653 | 40921 ft | 536 kts | 104° |
| 2026-05-05 04:28 | -16.29858 | 143.66127 | 40923 ft | 536 kts | 104° |
| 2026-05-05 04:28 | -16.31878 | 143.73604 | 40911 ft | 536 kts | 104° |
| 2026-05-05 04:28 | -16.32882 | 143.77319 | 40422 ft | 533 kts | 104° |
| 2026-05-05 04:29 | -16.33879 | 143.81017 | 39367 ft | 529 kts | 104° |
| 2026-05-05 04:29 | -16.34876 | 143.84715 | 37908 ft | 532 kts | 104° |
| 2026-05-05 04:29 | -16.35864 | 143.88388 | 36378 ft | 535 kts | 104° |
| 2026-05-05 04:29 | -16.36871 | 143.92132 | 34891 ft | 537 kts | 105° |
| 2026-05-05 04:30 | -16.37875 | 143.95869 | 33363 ft | 537 kts | 105° |
| 2026-05-05 04:30 | -16.38885 | 143.99628 | 31854 ft | 536 kts | 105° |
| 2026-05-05 04:30 | -16.39881 | 144.03333 | 31000 ft | 530 kts | 105° |
| 2026-05-05 04:30 | -16.40873 | 144.07030 | 30118 ft | 529 kts | 105° |
| 2026-05-05 04:31 | -16.41862 | 144.10718 | 29412 ft | 527 kts | 105° |
| 2026-05-05 04:31 | -16.42848 | 144.14394 | 28794 ft | 527 kts | 105° |
| 2026-05-05 04:31 | -16.43830 | 144.18057 | 28159 ft | 523 kts | 105° |
| 2026-05-05 04:31 | -16.44804 | 144.21697 | 27528 ft | 520 kts | 105° |
| 2026-05-05 04:32 | -16.45773 | 144.25320 | 26892 ft | 516 kts | 105° |
| 2026-05-05 04:32 | -16.46718 | 144.28856 | 26294 ft | 513 kts | 105° |
| 2026-05-05 04:32 | -16.47672 | 144.32430 | 25690 ft | 509 kts | 104° |
| 2026-05-05 04:32 | -16.48618 | 144.35973 | 25069 ft | 506 kts | 104° |
| 2026-05-05 04:33 | -16.49556 | 144.39490 | 24460 ft | 502 kts | 104° |
| 2026-05-05 04:33 | -16.50488 | 144.42990 | 23848 ft | 498 kts | 104° |
| 2026-05-05 04:33 | -16.51411 | 144.46456 | 23193 ft | 494 kts | 104° |
| 2026-05-05 04:33 | -16.52323 | 144.49891 | 22546 ft | 489 kts | 104° |
| 2026-05-05 04:34 | -16.53225 | 144.53283 | 21932 ft | 483 kts | 103° |
| 2026-05-05 04:34 | -16.54115 | 144.56635 | 21321 ft | 477 kts | 103° |
| 2026-05-05 04:34 | -16.54996 | 144.59954 | 20717 ft | 471 kts | 103° |
| 2026-05-05 04:34 | -16.55862 | 144.63221 | 20111 ft | 466 kts | 103° |
| 2026-05-05 04:35 | -16.56711 | 144.66424 | 19519 ft | 461 kts | 103° |
| 2026-05-05 04:35 | -16.57562 | 144.69637 | 18911 ft | 456 kts | 103° |
| 2026-05-05 04:35 | -16.58402 | 144.72812 | 18299 ft | 452 kts | 103° |
| 2026-05-05 04:35 | -16.59233 | 144.75956 | 17626 ft | 447 kts | 103° |
| 2026-05-05 04:36 | -16.60054 | 144.79063 | 16999 ft | 442 kts | 103° |
| 2026-05-05 04:36 | -16.60863 | 144.82130 | 16405 ft | 436 kts | 104° |
| 2026-05-05 04:36 | -16.61663 | 144.85162 | 15809 ft | 430 kts | 104° |
| 2026-05-05 04:36 | -16.62451 | 144.88159 | 15213 ft | 425 kts | 104° |
| 2026-05-05 04:37 | -16.62924 | 144.91137 | 14627 ft | 418 kts | 90° |
| 2026-05-05 04:37 | -16.62727 | 144.94131 | 14052 ft | 411 kts | 81° |
| 2026-05-05 04:37 | -16.62353 | 144.97073 | 13455 ft | 407 kts | 81° |
| 2026-05-05 04:37 | -16.61972 | 144.99988 | 12853 ft | 402 kts | 81° |
| 2026-05-05 04:38 | -16.61604 | 145.02864 | 12267 ft | 397 kts | 81° |
| 2026-05-05 04:38 | -16.61252 | 145.05665 | 11712 ft | 391 kts | 81° |
| 2026-05-05 04:38 | -16.60903 | 145.08462 | 11153 ft | 387 kts | 81° |
| 2026-05-05 04:38 | -16.60564 | 145.11193 | 10950 ft | 371 kts | 82° |
| 2026-05-05 04:39 | -16.60241 | 145.13804 | 10828 ft | 355 kts | 82° |
| 2026-05-05 04:39 | -16.59932 | 145.16301 | 10706 ft | 340 kts | 82° |
| 2026-05-05 04:39 | -16.59637 | 145.18693 | 10587 ft | 326 kts | 82° |
| 2026-05-05 04:39 | -16.59350 | 145.21001 | 10438 ft | 314 kts | 82° |
| 2026-05-05 04:40 | -16.59074 | 145.23222 | 10289 ft | 304 kts | 82° |
| 2026-05-05 04:40 | -16.58802 | 145.25405 | 9969 ft | 302 kts | 82° |
| 2026-05-05 04:40 | -16.58532 | 145.27577 | 9629 ft | 304 kts | 82° |
| 2026-05-05 04:40 | -16.58258 | 145.29769 | 9302 ft | 305 kts | 83° |
| 2026-05-05 04:41 | -16.57989 | 145.31928 | 9000 ft | 302 kts | 83° |
| 2026-05-05 04:41 | -16.57718 | 145.34096 | 8692 ft | 300 kts | 83° |
| 2026-05-05 04:41 | -16.57452 | 145.36233 | 8389 ft | 296 kts | 83° |
| 2026-05-05 04:41 | -16.57187 | 145.38353 | 8090 ft | 292 kts | 83° |
| 2026-05-05 04:42 | -16.56924 | 145.40447 | 7790 ft | 289 kts | 84° |
| 2026-05-05 04:42 | -16.56665 | 145.42514 | 7490 ft | 286 kts | 84° |
| 2026-05-05 04:42 | -16.56410 | 145.44556 | 7205 ft | 282 kts | 84° |
| 2026-05-05 04:42 | -16.56159 | 145.46569 | 6905 ft | 278 kts | 85° |
| 2026-05-05 04:43 | -16.55911 | 145.48559 | 6619 ft | 275 kts | 85° |
| 2026-05-05 04:43 | -16.55666 | 145.50526 | 6329 ft | 273 kts | 85° |
| 2026-05-05 04:43 | -16.55421 | 145.52480 | 6044 ft | 271 kts | 85° |
| 2026-05-05 04:43 | -16.55177 | 145.54424 | 5781 ft | 270 kts | 85° |
| 2026-05-05 04:44 | -16.54938 | 145.56365 | 5500 ft | 268 kts | 86° |
| 2026-05-05 04:44 | -16.54984 | 145.58256 | 5219 ft | 263 kts | 104° |
| 2026-05-05 04:44 | -16.55784 | 145.59919 | 5034 ft | 257 kts | 135° |
| 2026-05-05 04:44 | -16.57214 | 145.60981 | 4987 ft | 247 kts | 152° |
| 2026-05-05 04:45 | -16.58689 | 145.61699 | 4967 ft | 220 kts | 155° |
| 2026-05-05 04:45 | -16.60022 | 145.62288 | 4976 ft | 201 kts | 155° |
| 2026-05-05 04:45 | -16.61304 | 145.62863 | 4987 ft | 199 kts | 155° |
| 2026-05-05 04:45 | -16.62577 | 145.63436 | 4990 ft | 199 kts | 155° |
| 2026-05-05 04:46 | -16.63847 | 145.64011 | 4887 ft | 197 kts | 155° |
| 2026-05-05 04:46 | -16.65061 | 145.64565 | 4696 ft | 186 kts | 155° |
| 2026-05-05 04:46 | -16.66232 | 145.65100 | 4428 ft | 182 kts | 154° |
| 2026-05-05 04:46 | -16.67370 | 145.65617 | 4107 ft | 174 kts | 155° |
| 2026-05-05 04:47 | -16.68439 | 145.66103 | 3832 ft | 164 kts | 155° |
| 2026-05-05 04:47 | -16.69453 | 145.66565 | 3618 ft | 154 kts | 155° |
| 2026-05-05 04:47 | -16.70398 | 145.66994 | 3409 ft | 143 kts | 155° |
| 2026-05-05 04:47 | -16.71281 | 145.67396 | 3226 ft | 135 kts | 155° |
| 2026-05-05 04:48 | -16.72135 | 145.67786 | 3065 ft | 133 kts | 155° |
| 2026-05-05 04:48 | -16.72971 | 145.68165 | 2884 ft | 129 kts | 155° |
| 2026-05-05 04:48 | -16.73790 | 145.68536 | 2718 ft | 127 kts | 154° |
| 2026-05-05 04:48 | -16.74596 | 145.68905 | 2547 ft | 126 kts | 154° |
| 2026-05-05 04:49 | -16.75403 | 145.69272 | 2399 ft | 126 kts | 155° |
| 2026-05-05 04:49 | -16.76209 | 145.69639 | 2214 ft | 126 kts | 155° |
| 2026-05-05 04:49 | -16.77014 | 145.70004 | 2049 ft | 126 kts | 154° |
| 2026-05-05 04:49 | -16.77820 | 145.70371 | 1886 ft | 127 kts | 153° |
| 2026-05-05 04:50 | -16.78631 | 145.70740 | 1708 ft | 126 kts | 154° |
| 2026-05-05 04:50 | -16.79426 | 145.71101 | 1542 ft | 125 kts | 152° |
| 2026-05-05 04:50 | -16.80219 | 145.71463 | 1388 ft | 126 kts | 154° |
| 2026-05-05 04:50 | -16.81026 | 145.71830 | 1224 ft | 125 kts | 154° |
| 2026-05-05 04:51 | -16.81827 | 145.72194 | 1053 ft | 125 kts | 153° |
| 2026-05-05 04:51 | -16.82621 | 145.72555 | 884 ft | 124 kts | 152° |
| 2026-05-05 04:51 | -16.83407 | 145.72912 | 724 ft | 126 kts | 151° |
| 2026-05-05 04:51 | -16.84222 | 145.73284 | 550 ft | 127 kts | 153° |
| 2026-05-05 04:52 | -16.85029 | 145.73651 | 385 ft | 126 kts | 155° |
| 2026-05-05 04:52 | -16.85822 | 145.74011 | 222 ft | 123 kts | 154° |
| 2026-05-05 04:52 | -16.86605 | 145.74368 | 47 ft | 123 kts | 152° |
| 2026-05-05 04:52 | -16.87264 | 145.74669 | 22 ft | 64 kts | 157° |
| 2026-05-05 04:53 | -16.87543 | 145.74790 | 27 ft | 27 kts | 156° |
| 2026-05-05 04:53 | -16.87660 | 145.74843 | 29 ft | 16 kts | 156° |
| 2026-05-05 04:53 | -16.87717 | 145.74921 | 26 ft | 14 kts | 82° |
| 2026-05-05 04:53 | -16.87666 | 145.75019 | 23 ft | 17 kts | 37° |
| 2026-05-05 04:54 | -16.87602 | 145.75015 | 25 ft | 15 kts | 341° |
| 2026-05-05 04:54 | -16.87495 | 145.74974 | 23 ft | 17 kts | 341° |
| 2026-05-05 04:54 | -16.87372 | 145.74995 | 23 ft | 19 kts | 24° |
| 2026-05-05 04:54 | -16.87287 | 145.75103 | 25 ft | 20 kts | 65° |
| 2026-05-05 04:55 | -16.87231 | 145.75236 | 24 ft | 19 kts | 66° |
| 2026-05-05 04:55 | -16.87186 | 145.75344 | 24 ft | 17 kts | 69° |
| 2026-05-05 04:55 | -16.87148 | 145.75456 | 23 ft | 16 kts | 68° |
| 2026-05-05 04:55 | -16.87113 | 145.75538 | 25 ft | 8 kts | 66° |
| 2026-05-05 04:56 | -16.87094 | 145.75586 | 23 ft | 7 kts | 68° |
| 2026-05-05 04:56 | -16.87107 | 145.75624 | 25 ft | 5 kts | 130° |
| 2026-05-05 04:56 | -16.87137 | 145.75645 | 26 ft | 4 kts | 154° |
| 2026-05-05 04:56 | -16.87151 | 145.75652 | 24 ft | 0 kts | 155° |